Time;durP1;ratioP1;P1;durP2;ratioP2;P2;SDS_P1;SDS_P2;PMS_P1;PMS_P2;Temp;Humidity;BMP_temperature;BMP_pressure;BME280_temperature;BME280_humidity;BME280_pressure;Samples;Min_cycle;Max_cycle;Signal;HPM_P1;HPM_P2
2022/04/12 00:00:22;;;;;;;31.75;18.02;;;1.30;99.90;;;;;;5115353;28;20019;-72
2022/04/12 00:02:48;;;;;;;31.40;16.40;;;1.30;99.90;;;;;;5116991;27;20023;-72
2022/04/12 00:05:14;;;;;;;30.15;16.15;;;1.30;99.90;;;;;;5116777;28;20039;-71
2022/04/12 00:07:40;;;;;;;32.00;17.08;;;1.20;99.90;;;;;;5116660;27;20028;-70
2022/04/12 00:10:06;;;;;;;31.20;16.67;;;1.10;99.90;;;;;;5116337;28;20483;-70
2022/04/12 00:12:32;;;;;;;26.52;15.57;;;1.10;99.90;;;;;;5115211;28;20023;-73
2022/04/12 00:14:58;;;;;;;32.42;16.30;;;1.00;99.90;;;;;;5115260;28;20419;-70
2022/04/12 00:20:09;;;;;;;30.67;18.15;;;1.00;99.90;;;;;;5116609;28;20030;-69
2022/04/12 00:22:35;;;;;;;30.65;16.15;;;0.90;99.90;;;;;;5115060;28;20803;-73
2022/04/12 00:25:02;;;;;;;27.38;16.30;;;0.90;99.90;;;;;;5116323;28;20027;-73
2022/04/12 00:27:27;;;;;;;28.75;14.80;;;0.90;99.90;;;;;;5116202;28;20091;-72
2022/04/12 00:29:54;;;;;;;25.58;14.88;;;0.80;99.90;;;;;;5114672;28;20110;-73
2022/04/12 00:32:20;;;;;;;31.40;17.17;;;0.80;99.90;;;;;;5114296;28;20047;-71
2022/04/12 00:34:45;;;;;;;32.67;19.27;;;0.80;99.90;;;;;;5113799;28;20541;-74
2022/04/12 00:37:11;;;;;;;29.27;16.80;;;0.80;99.90;;;;;;5115155;28;20019;-75
2022/04/12 00:39:37;;;;;;;31.67;16.98;;;0.80;99.90;;;;;;5114898;28;20015;-74
2022/04/12 00:42:04;;;;;;;34.95;16.83;;;0.80;99.90;;;;;;5115081;28;20385;-71
2022/04/12 00:44:29;;;;;;;31.15;15.57;;;0.70;99.90;;;;;;5114741;28;20118;-75
2022/04/12 00:46:55;;;;;;;32.28;16.88;;;0.80;99.90;;;;;;5114838;28;20103;-72
2022/04/12 00:49:23;;;;;;;30.13;17.38;;;0.70;99.90;;;;;;5114893;28;20024;-73
2022/04/12 00:51:49;;;;;;;29.15;18.27;;;0.80;99.90;;;;;;5113303;28;20469;-72
2022/04/12 00:54:20;;;;;;;33.58;16.77;;;0.80;99.90;;;;;;5113577;28;20024;-72
2022/04/12 00:56:48;;;;;;;27.48;16.27;;;0.80;99.90;;;;;;5114835;28;20023;-74
2022/04/12 00:59:13;;;;;;;35.47;16.90;;;0.80;99.90;;;;;;5114861;28;20520;-74
2022/04/12 01:01:39;;;;;;;30.40;16.40;;;0.80;99.90;;;;;;5114509;28;20051;-74
2022/04/12 01:04:05;;;;;;;33.08;16.83;;;0.80;99.90;;;;;;5114565;28;20080;-73
2022/04/12 01:06:30;;;;;;;31.30;15.80;;;0.90;99.90;;;;;;5114488;28;20450;-71
2022/04/12 01:08:56;;;;;;;27.55;16.08;;;0.80;99.90;;;;;;5114617;28;20556;-74
2022/04/12 01:11:22;;;;;;;33.50;18.00;;;0.90;99.90;;;;;;5112471;28;20024;-72
2022/04/12 01:13:47;;;;;;;32.45;17.90;;;0.90;99.90;;;;;;5112287;28;20389;-73
2022/04/12 01:16:13;;;;;;;32.15;17.33;;;0.90;99.90;;;;;;5112989;28;20056;-72
2022/04/12 01:18:40;;;;;;;35.17;18.15;;;0.90;99.90;;;;;;5112938;28;20511;-74
2022/04/12 01:21:06;;;;;;;32.35;17.73;;;0.90;99.90;;;;;;5114446;28;20024;-74
2022/04/12 01:23:39;;;;;;;32.15;17.25;;;0.90;99.90;;;;;;5114318;28;20374;-75
2022/04/12 01:26:06;;;;;;;46.53;24.83;;;0.80;99.90;;;;;;5114431;28;20031;-74
2022/04/12 01:28:31;;;;;;;32.20;17.85;;;0.80;99.90;;;;;;5114484;28;20094;-72
2022/04/12 01:30:57;;;;;;;33.53;18.13;;;0.80;99.90;;;;;;5114362;28;20054;-71
2022/04/12 01:33:23;;;;;;;44.53;20.77;;;0.80;99.90;;;;;;5071883;28;1219037;-72
2022/04/12 01:35:48;;;;;;;33.30;18.80;;;0.80;99.90;;;;;;5115196;28;20504;-72
2022/04/12 01:38:14;;;;;;;35.97;20.00;;;0.80;99.90;;;;;;5113905;28;20022;-73
2022/04/12 01:40:39;;;;;;;37.08;19.55;;;0.80;99.90;;;;;;5115130;28;20052;-72
2022/04/12 01:43:05;;;;;;;30.58;19.13;;;0.90;99.90;;;;;;5114961;28;20024;-75
2022/04/12 01:45:30;;;;;;;37.55;20.80;;;0.90;99.90;;;;;;5114283;28;20030;-73
2022/04/12 01:47:56;;;;;;;33.20;19.75;;;0.90;99.90;;;;;;5115004;28;20024;-71
2022/04/12 01:50:22;;;;;;;35.63;21.98;;;0.90;99.90;;;;;;5114917;28;20023;-73
2022/04/12 01:52:48;;;;;;;26.50;14.98;;;0.80;99.90;;;;;;5114918;28;20155;-72
2022/04/12 01:55:14;;;;;;;26.58;15.57;;;0.60;99.90;;;;;;5114894;28;20039;-74
2022/04/12 01:57:40;;;;;;;27.10;16.05;;;0.60;99.90;;;;;;5114545;28;20040;-75
2022/04/12 02:00:07;;;;;;;33.97;20.52;;;0.70;99.90;;;;;;5113490;28;20024;-74
2022/04/12 02:02:33;;;;;;;47.42;28.67;;;0.70;99.90;;;;;;5114631;28;20016;-75
2022/04/12 02:04:59;;;;;;;40.15;24.92;;;0.70;99.90;;;;;;5113309;28;20050;-74
2022/04/12 02:07:24;;;;;;;33.00;22.08;;;0.80;99.90;;;;;;5113238;28;20019;-74
2022/04/12 02:09:50;;;;;;;41.25;22.50;;;0.70;99.90;;;;;;5114531;28;20016;-72
2022/04/12 02:12:15;;;;;;;39.05;22.42;;;0.80;99.90;;;;;;5113231;28;20092;-74
2022/04/12 02:14:41;;;;;;;36.78;20.40;;;0.80;99.90;;;;;;5114398;28;20115;-72
2022/04/12 02:17:06;;;;;;;45.42;26.23;;;0.80;99.90;;;;;;5114426;28;20027;-71
2022/04/12 02:19:32;;;;;;;52.10;32.83;;;0.80;99.90;;;;;;5114445;28;20027;-72
2022/04/12 02:21:57;;;;;;;53.90;32.15;;;0.80;99.90;;;;;;5114249;28;20023;-71
2022/04/12 02:24:23;;;;;;;47.70;27.73;;;0.70;99.90;;;;;;5112863;28;20070;-74
2022/04/12 02:26:49;;;;;;;44.67;26.67;;;0.80;99.90;;;;;;5112995;28;20019;-72
2022/04/12 02:29:14;;;;;;;45.40;28.55;;;0.80;99.90;;;;;;5114236;28;20027;-73
2022/04/12 02:31:41;;;;;;;47.70;28.55;;;0.80;99.90;;;;;;5112775;28;20027;-71
2022/04/12 02:34:07;;;;;;;44.95;26.70;;;0.80;99.90;;;;;;5112485;28;20036;-74
2022/04/12 02:36:32;;;;;;;45.28;24.27;;;0.80;99.90;;;;;;5114081;28;20103;-71
2022/04/12 02:38:58;;;;;;;41.78;21.02;;;0.80;99.90;;;;;;5114029;28;20019;-75
2022/04/12 02:41:23;;;;;;;38.67;21.77;;;0.80;99.90;;;;;;5112494;28;20532;-72
2022/04/12 02:43:49;;;;;;;43.53;21.95;;;0.90;99.90;;;;;;5113959;28;20036;-75
2022/04/12 02:46:14;;;;;;;42.80;24.40;;;0.90;99.90;;;;;;5113865;28;20028;-74
2022/04/12 02:48:40;;;;;;;46.80;26.17;;;0.90;99.90;;;;;;5113878;28;20030;-75
2022/04/12 02:51:06;;;;;;;45.35;24.77;;;0.90;99.90;;;;;;5113794;28;20015;-71
2022/04/12 02:53:31;;;;;;;41.88;24.05;;;0.90;99.90;;;;;;5112458;28;20058;-73
2022/04/12 02:55:57;;;;;;;37.75;24.40;;;1.00;99.90;;;;;;5112339;28;20115;-72
2022/04/12 02:58:22;;;;;;;43.58;23.52;;;1.00;99.90;;;;;;5113843;28;20020;-72
2022/04/12 03:00:48;;;;;;;39.75;22.52;;;0.90;99.90;;;;;;5113735;28;20091;-74
2022/04/12 03:03:14;;;;;;;38.97;22.58;;;0.90;99.90;;;;;;5113671;28;20035;-74
2022/04/12 03:05:39;;;;;;;36.08;21.65;;;0.80;99.90;;;;;;5112503;28;20077;-73
2022/04/12 03:08:05;;;;;;;44.38;23.20;;;0.80;99.90;;;;;;5113627;28;20023;-72
2022/04/12 03:10:30;;;;;;;44.30;23.90;;;0.80;99.90;;;;;;5112509;28;20390;-75
2022/04/12 03:12:56;;;;;;;38.22;23.23;;;0.90;99.90;;;;;;5112364;28;20477;-74
2022/04/12 03:15:22;;;;;;;40.38;22.08;;;0.80;99.90;;;;;;5113656;28;20023;-72
2022/04/12 03:17:47;;;;;;;36.55;22.60;;;0.90;99.90;;;;;;5112231;28;20066;-71
2022/04/12 03:20:13;;;;;;;43.72;22.88;;;0.80;99.90;;;;;;5112626;28;20051;-72
2022/04/12 03:22:41;;;;;;;46.55;21.95;;;0.80;99.90;;;;;;5112238;28;20404;-73
2022/04/12 03:25:10;;;;;;;43.97;22.73;;;0.80;99.90;;;;;;5113357;28;20468;-72
2022/04/12 03:27:36;;;;;;;43.38;21.95;;;0.80;99.90;;;;;;5113263;28;20020;-71
2022/04/12 03:30:02;;;;;;;46.97;23.35;;;0.80;99.90;;;;;;5113149;28;20080;-74
2022/04/12 03:32:28;;;;;;;43.17;22.85;;;0.80;99.90;;;;;;5113215;28;20076;-72
2022/04/12 03:34:53;;;;;;;39.22;22.35;;;0.80;99.90;;;;;;5112949;28;20059;-74
2022/04/12 03:37:19;;;;;;;41.95;22.27;;;0.80;99.90;;;;;;5113137;28;20028;-71
2022/04/12 03:39:45;;;;;;;43.78;21.75;;;0.70;99.90;;;;;;5112744;28;20031;-75
2022/04/12 03:42:11;;;;;;;44.30;24.33;;;0.70;99.90;;;;;;5112047;28;20024;-75
2022/04/12 03:44:37;;;;;;;43.45;21.63;;;0.70;99.90;;;;;;5111866;28;20173;-72
2022/04/12 03:47:03;;;;;;;40.08;23.02;;;0.60;99.90;;;;;;5111875;28;20024;-71
2022/04/12 03:49:28;;;;;;;39.47;22.02;;;0.60;99.90;;;;;;5112826;28;20496;-75
2022/04/12 03:51:54;;;;;;;42.70;22.77;;;0.50;99.90;;;;;;5112097;28;20055;-74
2022/04/12 03:54:20;;;;;;;40.38;20.73;;;0.50;99.90;;;;;;5112417;28;20027;-73
2022/04/12 03:56:45;;;;;;;43.35;20.67;;;0.50;99.90;;;;;;5111266;28;20558;-71
2022/04/12 03:59:11;;;;;;;42.75;22.40;;;0.40;99.90;;;;;;5111934;28;20024;-74
2022/04/12 04:01:37;;;;;;;39.67;21.45;;;0.30;99.90;;;;;;5113238;28;20489;-71
2022/04/12 04:04:03;;;;;;;42.63;21.23;;;0.30;99.90;;;;;;5113186;28;20028;-71
2022/04/12 04:06:28;;;;;;;43.28;22.15;;;0.30;99.90;;;;;;5113180;28;20027;-75
2022/04/12 04:08:54;;;;;;;51.70;23.52;;;0.20;99.90;;;;;;5116528;28;20019;-74
2022/04/12 04:11:19;;;;;;;39.95;22.13;;;0.20;99.90;;;;;;5116861;28;20426;-71
2022/04/12 04:13:45;;;;;;;44.33;21.80;;;0.20;99.90;;;;;;5115616;28;20054;-71
2022/04/12 04:16:11;;;;;;;42.40;21.95;;;0.20;99.90;;;;;;5114719;28;20027;-71
2022/04/12 04:18:37;;;;;;;40.17;21.38;;;0.10;99.90;;;;;;5113400;28;20484;-72
2022/04/12 04:21:03;;;;;;;44.85;21.80;;;0.00;99.90;;;;;;5113292;28;20451;-75
2022/04/12 04:23:29;;;;;;;42.13;23.00;;;0.00;99.90;;;;;;5114710;28;20028;-71
2022/04/12 04:25:54;;;;;;;70.30;33.95;;;0.00;99.90;;;;;;5115165;28;20023;-71
2022/04/12 04:28:23;;;;;;;90.15;39.78;;;0.00;99.90;;;;;;5115503;28;20072;-74
2022/04/12 04:30:49;;;;;;;99.85;43.83;;;0.00;99.90;;;;;;5116833;28;20020;-74
2022/04/12 04:33:17;;;;;;;95.28;43.28;;;0.00;99.90;;;;;;5116242;28;20039;-75
2022/04/12 04:35:43;;;;;;;102.28;43.28;;;0.00;99.90;;;;;;5116519;28;20020;-74
2022/04/12 04:38:09;;;;;;;83.40;35.10;;;0.00;99.90;;;;;;5116224;28;20128;-75
2022/04/12 04:40:34;;;;;;;81.07;35.00;;;0.00;99.90;;;;;;5116296;28;20548;-74
2022/04/12 04:43:02;;;;;;;57.42;26.90;;;0.10;99.90;;;;;;5116286;28;20035;-71
2022/04/12 04:45:27;;;;;;;61.05;27.95;;;0.10;99.90;;;;;;5114750;28;20372;-72
2022/04/12 04:47:58;;;;;;;55.90;26.08;;;0.10;99.90;;;;;;5116006;28;20023;-74
2022/04/12 04:50:26;;;;;;;50.00;25.95;;;0.30;99.90;;;;;;5116142;28;20106;-74
2022/04/12 04:52:52;;;;;;;44.28;22.77;;;0.30;99.90;;;;;;5116080;28;20100;-74
2022/04/12 04:55:19;;;;;;;51.28;26.40;;;0.40;99.90;;;;;;5114724;28;20550;-74
2022/04/12 04:57:46;;;;;;;50.97;26.75;;;0.40;99.90;;;;;;5115989;28;20020;-71
2022/04/12 05:00:15;;;;;;;59.08;25.15;;;0.50;99.90;;;;;;5114745;28;20522;-71
2022/04/12 05:02:42;;;;;;;47.08;25.83;;;0.50;99.90;;;;;;5115936;27;20031;-74
2022/04/12 05:05:08;;;;;;;58.70;28.23;;;0.60;99.90;;;;;;5115721;28;20035;-72
2022/04/12 05:07:33;;;;;;;58.80;29.33;;;0.70;99.90;;;;;;5115792;28;20029;-74
2022/04/12 05:09:59;;;;;;;61.15;29.23;;;0.70;99.90;;;;;;5115749;28;20020;-72
2022/04/12 05:12:24;;;;;;;50.58;26.52;;;0.70;99.90;;;;;;5115560;28;20056;-75
2022/04/12 05:14:50;;;;;;;68.95;32.35;;;0.80;99.90;;;;;;5115111;28;20381;-73
2022/04/12 05:17:26;;;;;;;169.75;75.93;;;0.80;99.90;;;;;;5114210;28;20027;-71
2022/04/12 05:19:52;;;;;;;508.08;227.07;;;0.90;99.90;;;;;;5111211;28;20032;-74
2022/04/12 05:22:18;;;;;;;606.50;291.38;;;1.00;99.90;;;;;;5093006;28;20028;-74
2022/04/12 05:24:45;;;;;;;420.58;182.70;;;1.10;99.90;;;;;;5093853;28;20397;-74
2022/04/12 05:27:11;;;;;;;168.45;75.32;;;1.30;99.90;;;;;;5093750;28;20016;-70
2022/04/12 05:29:37;;;;;;;146.13;68.38;;;1.40;99.90;;;;;;5093730;28;20012;-71
2022/04/12 05:32:03;;;;;;;135.07;58.72;;;1.50;99.90;;;;;;5094009;28;20095;-72
2022/04/12 05:34:28;;;;;;;280.08;123.18;;;1.60;99.90;;;;;;5093816;28;20105;-72
2022/04/12 05:36:54;;;;;;;183.25;77.38;;;1.60;99.90;;;;;;5109360;28;20607;-74
2022/04/12 05:39:20;;;;;;;116.45;48.78;;;1.70;99.90;;;;;;5094096;28;20025;-71
2022/04/12 05:41:45;;;;;;;72.18;34.50;;;1.90;99.90;;;;;;5107902;28;20023;-71
2022/04/12 05:44:11;;;;;;;70.45;30.95;;;2.10;99.90;;;;;;5114922;28;20042;-73
2022/04/12 05:46:36;;;;;;;62.60;32.20;;;2.20;99.90;;;;;;5114955;28;20147;-69
2022/04/12 05:49:02;;;;;;;65.32;30.60;;;2.30;99.90;;;;;;5114930;28;20020;-69
2022/04/12 05:51:27;;;;;;;71.03;35.33;;;2.50;99.90;;;;;;5114754;28;20036;-69
2022/04/12 05:53:53;;;;;;;106.38;44.65;;;2.60;99.90;;;;;;5114835;28;20148;-70
2022/04/12 05:56:19;;;;;;;318.27;108.40;;;2.60;99.90;;;;;;5111364;28;20490;-69
2022/04/12 05:58:44;;;;;;;396.60;123.32;;;2.80;99.90;;;;;;5113720;28;20468;-70
2022/04/12 06:01:10;;;;;;;430.77;134.25;;;2.80;99.90;;;;;;5113680;28;20068;-70
2022/04/12 06:03:35;;;;;;;283.27;101.95;;;3.00;99.90;;;;;;5113715;28;20074;-70
2022/04/12 06:06:01;;;;;;;295.23;105.55;;;3.20;99.90;;;;;;5114375;28;20072;-70
2022/04/12 06:08:26;;;;;;;293.90;128.57;;;3.30;99.90;;;;;;5114547;28;20426;-70
2022/04/12 06:10:52;;;;;;;138.35;68.05;;;3.60;99.90;;;;;;5113011;28;20020;-70
2022/04/12 06:13:18;;;;;;;120.57;62.78;;;3.80;99.90;;;;;;5114352;28;20016;-70
2022/04/12 06:15:44;;;;;;;95.80;47.17;;;3.90;99.90;;;;;;5114325;28;20028;-72
2022/04/12 06:18:10;;;;;;;83.78;40.40;;;4.20;99.90;;;;;;5114407;28;20019;-73
2022/04/12 06:20:36;;;;;;;80.05;39.22;;;4.40;99.90;;;;;;5113090;28;20487;-73
2022/04/12 06:23:02;;;;;;;77.70;35.53;;;4.50;94.20;;;;;;5112924;28;20046;-70
2022/04/12 06:25:29;;;;;;;73.30;33.65;;;4.60;87.60;;;;;;5112922;28;20058;-71
2022/04/12 06:27:55;;;;;;;79.28;34.83;;;4.80;87.20;;;;;;5112071;28;20027;-72
2022/04/12 06:30:26;;;;;;;81.40;36.50;;;5.00;86.30;;;;;;5111731;28;20024;-71
2022/04/12 06:32:52;;;;;;;73.45;38.45;;;5.10;83.70;;;;;;5111991;28;20135;-73
2022/04/12 06:35:18;;;;;;;72.85;34.88;;;5.20;82.00;;;;;;5110684;28;20023;-70
2022/04/12 06:37:45;;;;;;;67.20;35.92;;;5.40;82.10;;;;;;5111883;28;20028;-73
2022/04/12 06:40:15;;;;;;;69.22;31.70;;;5.60;82.10;;;;;;5111372;28;20389;-73
2022/04/12 06:42:41;;;;;;;60.67;31.45;;;5.60;79.20;;;;;;5114385;28;20031;-70
2022/04/12 06:45:08;;;;;;;62.53;30.38;;;5.70;77.60;;;;;;5113907;28;20042;-72
2022/04/12 06:47:37;;;;;;;61.42;30.63;;;5.80;76.90;;;;;;5114031;28;20020;-73
2022/04/12 06:50:03;;;;;;;58.03;29.30;;;5.90;75.50;;;;;;5114025;28;20035;-73
2022/04/12 06:52:29;;;;;;;53.30;29.63;;;6.10;74.60;;;;;;5113998;28;20031;-71
2022/04/12 06:54:54;;;;;;;65.50;30.48;;;6.20;72.50;;;;;;5113784;28;20023;-71
2022/04/12 06:57:20;;;;;;;53.42;28.05;;;6.40;71.10;;;;;;5113871;28;20025;-70
2022/04/12 06:59:46;;;;;;;53.47;28.38;;;6.60;72.50;;;;;;5113821;28;20020;-73
2022/04/12 07:02:12;;;;;;;60.08;29.30;;;6.80;71.50;;;;;;5112356;28;20020;-73
2022/04/12 07:04:38;;;;;;;53.33;28.58;;;6.90;70.30;;;;;;5113674;28;20031;-71
2022/04/12 07:07:03;;;;;;;51.45;25.65;;;7.10;68.50;;;;;;5113810;28;20107;-73
2022/04/12 07:09:30;;;;;;;51.05;25.70;;;7.20;66.40;;;;;;5112468;28;20024;-72
2022/04/12 07:11:57;;;;;;;46.53;22.90;;;7.40;67.90;;;;;;5112462;28;20030;-71
2022/04/12 07:14:22;;;;;;;41.35;21.90;;;7.50;65.70;;;;;;5113622;28;20020;-72
2022/04/12 07:16:48;;;;;;;39.08;22.15;;;7.60;65.00;;;;;;5112384;28;20020;-73
2022/04/12 07:19:14;;;;;;;42.50;21.25;;;7.80;63.50;;;;;;5113573;28;20487;-71
2022/04/12 07:21:40;;;;;;;41.53;22.55;;;7.90;63.10;;;;;;5112237;28;20027;-73
2022/04/12 07:24:06;;;;;;;44.92;23.00;;;8.00;62.20;;;;;;5112184;28;20122;-73
2022/04/12 07:26:32;;;;;;;41.13;21.33;;;8.10;62.50;;;;;;5113574;28;20535;-71
2022/04/12 07:28:59;;;;;;;39.55;21.13;;;8.30;63.00;;;;;;5112305;28;20030;-71
2022/04/12 07:31:25;;;;;;;49.15;21.75;;;8.50;62.50;;;;;;5113646;28;20418;-73
2022/04/12 07:33:51;;;;;;;42.90;21.77;;;8.70;61.10;;;;;;5113451;28;20047;-71
2022/04/12 07:36:17;;;;;;;85.15;39.95;;;8.80;61.10;;;;;;5113474;28;20027;-71
2022/04/12 07:38:43;;;;;;;43.05;21.95;;;9.00;60.90;;;;;;5113348;28;20124;-73
2022/04/12 07:41:09;;;;;;;36.28;19.75;;;9.10;60.30;;;;;;5113479;28;20432;-73
2022/04/12 07:43:36;;;;;;;35.80;19.90;;;9.30;61.30;;;;;;5115389;28;20031;-73
2022/04/12 07:46:02;;;;;;;36.70;18.55;;;9.30;58.50;;;;;;5117379;28;20028;-71
2022/04/12 07:48:27;;;;;;;36.63;16.92;;;9.50;57.80;;;;;;5117349;28;20050;-72
2022/04/12 07:50:54;;;;;;;30.75;16.77;;;9.60;58.00;;;;;;5117349;28;20069;-73
2022/04/12 07:53:20;;;;;;;31.73;17.45;;;9.70;56.50;;;;;;5115988;28;20019;-71
2022/04/12 07:55:46;;;;;;;23.90;14.98;;;9.80;57.20;;;;;;5117254;28;20098;-72
2022/04/12 07:58:13;;;;;;;27.60;14.48;;;9.90;57.80;;;;;;5116870;28;20068;-73
2022/04/12 08:00:38;;;;;;;20.10;11.85;;;9.90;56.60;;;;;;5117174;28;20054;-72
2022/04/12 08:03:04;;;;;;;24.98;13.27;;;10.00;56.00;;;;;;5117117;28;20062;-71
2022/04/12 08:05:30;;;;;;;23.83;12.50;;;10.10;55.50;;;;;;5117088;28;20028;-73
2022/04/12 08:07:55;;;;;;;24.05;13.25;;;10.20;55.10;;;;;;5116879;28;20020;-73
2022/04/12 08:10:21;;;;;;;20.38;11.55;;;10.00;55.30;;;;;;5115732;28;20499;-73
2022/04/12 08:12:47;;;;;;;24.42;14.48;;;9.90;54.20;;;;;;5116900;28;20100;-72
2022/04/12 08:15:15;;;;;;;17.08;10.95;;;9.80;55.80;;;;;;5116899;27;20406;-73
2022/04/12 08:17:41;;;;;;;25.30;15.15;;;9.70;55.70;;;;;;5116760;28;20059;-72
2022/04/12 08:20:13;;;;;;;26.13;14.43;;;9.90;55.30;;;;;;5116745;28;20057;-73
2022/04/12 08:22:40;;;;;;;23.02;12.32;;;10.30;56.10;;;;;;5116646;28;20103;-73
2022/04/12 08:25:07;;;;;;;18.60;10.23;;;10.50;54.40;;;;;;5116373;28;20034;-71
2022/04/12 08:27:33;;;;;;;15.70;10.25;;;10.60;51.40;;;;;;5116481;28;20389;-73
2022/04/12 08:29:58;;;;;;;17.42;10.93;;;10.40;50.10;;;;;;5116406;28;20023;-72
2022/04/12 08:32:24;;;;;;;23.05;11.75;;;10.30;51.10;;;;;;5116252;28;20034;-73
2022/04/12 08:34:50;;;;;;;18.35;11.60;;;10.20;52.60;;;;;;5115792;28;20027;-72
2022/04/12 08:37:15;;;;;;;21.92;12.32;;;10.30;54.00;;;;;;5116411;28;20036;-72
2022/04/12 08:39:41;;;;;;;24.17;12.98;;;10.00;53.50;;;;;;5113798;28;20673;-73
2022/04/12 08:42:07;;;;;;;21.40;12.80;;;9.90;53.20;;;;;;5116188;28;20488;-73
2022/04/12 08:44:36;;;;;;;18.20;11.13;;;9.70;52.70;;;;;;5115716;28;20032;-72
2022/04/12 08:47:03;;;;;;;21.85;10.82;;;9.90;53.10;;;;;;5116069;28;20049;-72
2022/04/12 08:49:29;;;;;;;19.33;11.88;;;10.20;53.40;;;;;;5116263;28;20103;-72
2022/04/12 08:51:55;;;;;;;14.73;9.70;;;10.40;52.00;;;;;;5116282;28;20047;-72
2022/04/12 08:54:22;;;;;;;17.17;10.20;;;10.50;51.30;;;;;;5115705;28;20073;-72
2022/04/12 08:56:52;;;;;;;17.45;9.75;;;10.30;50.40;;;;;;5115841;28;20073;-72
2022/04/12 08:59:18;;;;;;;14.50;8.75;;;10.50;50.60;;;;;;5115933;28;20115;-72
2022/04/12 09:01:46;;;;;;;17.80;10.65;;;10.70;50.30;;;;;;5115869;28;20080;-72
2022/04/12 09:04:13;;;;;;;14.40;9.13;;;10.60;49.80;;;;;;5115351;28;20489;-73
2022/04/12 09:06:58;;;;;;;18.00;8.95;;;10.50;49.50;;;;;;5115110;28;20023;-72
2022/04/12 09:09:29;;;;;;;13.90;7.82;;;10.50;49.90;;;;;;5115855;28;20469;-73
2022/04/12 09:12:09;;;;;;;10.98;6.80;;;10.20;48.10;;;;;;5114465;28;20523;-73
2022/04/12 09:14:46;;;;;;;11.45;7.15;;;10.00;47.70;;;;;;5115820;28;20047;-73
2022/04/12 09:17:19;;;;;;;7.72;5.32;;;9.80;47.80;;;;;;5115506;28;20012;-72
2022/04/12 09:19:51;;;;;;;11.43;8.00;;;9.70;47.20;;;;;;5114190;28;20040;-72
2022/04/12 09:22:18;;;;;;;18.52;9.27;;;9.60;47.90;;;;;;5115485;28;20070;-72
2022/04/12 09:24:51;;;;;;;12.57;7.65;;;9.50;49.10;;;;;;5115409;28;20035;-72
2022/04/12 09:27:35;;;;;;;11.68;6.97;;;9.40;49.00;;;;;;5115438;28;20047;-72
2022/04/12 09:32:53;;;;;;;10.45;6.78;;;10.00;48.60;;;;;;5115342;28;20055;-72
2022/04/12 09:35:18;;;;;;;10.57;7.07;;;10.00;47.90;;;;;;5115467;28;20098;-72
2022/04/12 09:37:45;;;;;;;12.38;7.65;;;10.00;48.00;;;;;;5115196;28;20102;-72
2022/04/12 09:40:14;;;;;;;11.50;6.47;;;10.30;47.20;;;;;;5115191;28;20026;-73
2022/04/12 09:42:51;;;;;;;11.05;6.88;;;10.60;47.00;;;;;;5115132;28;20023;-73
2022/04/12 09:45:19;;;;;;;12.05;7.20;;;10.90;47.50;;;;;;5114623;28;20502;-73
2022/04/12 09:47:48;;;;;;;15.27;7.65;;;10.90;45.80;;;;;;5114979;27;20068;-74
2022/04/12 09:50:14;;;;;;;16.60;7.47;;;11.10;44.80;;;;;;5115187;28;20034;-73
2022/04/12 09:53:01;;;;;;;11.75;6.95;;;11.40;46.90;;;;;;5114961;28;20023;-75
2022/04/12 09:55:47;;;;;;;14.18;7.22;;;11.70;46.30;;;;;;5114927;27;20380;-74
2022/04/12 09:58:13;;;;;;;12.52;7.82;;;12.00;46.20;;;;;;5113598;28;20556;-73
2022/04/12 10:00:41;;;;;;;10.85;7.43;;;12.10;44.90;;;;;;5113441;28;20060;-74
2022/04/12 10:03:09;;;;;;;14.32;8.85;;;12.20;45.10;;;;;;5114631;28;20036;-74
2022/04/12 10:05:36;;;;;;;10.68;6.72;;;12.10;43.50;;;;;;5112762;28;20032;-73
2022/04/12 10:08:03;;;;;;;12.50;8.30;;;12.20;43.70;;;;;;5114530;28;20027;-73
2022/04/12 10:10:30;;;;;;;11.18;6.97;;;12.10;43.00;;;;;;5114552;28;20019;-73
2022/04/12 10:12:57;;;;;;;9.77;7.82;;;12.00;42.80;;;;;;5114358;28;20094;-73
2022/04/12 10:15:24;;;;;;;15.32;8.32;;;12.10;43.50;;;;;;5114643;28;20496;-74
2022/04/12 10:17:51;;;;;;;13.40;7.15;;;11.80;42.80;;;;;;5112996;28;20023;-74
2022/04/12 10:20:18;;;;;;;12.93;7.20;;;11.80;42.90;;;;;;5114552;28;20053;-74
2022/04/12 10:22:44;;;;;;;11.30;6.80;;;11.70;41.50;;;;;;5114457;28;20016;-73
2022/04/12 10:25:14;;;;;;;11.70;6.93;;;11.40;41.30;;;;;;5114283;28;20370;-74
2022/04/12 10:27:40;;;;;;;15.38;7.50;;;11.50;41.40;;;;;;5114406;28;20051;-73
2022/04/12 10:30:15;;;;;;;12.02;6.80;;;11.40;42.80;;;;;;5112974;28;20085;-73
2022/04/12 10:33:04;;;;;;;17.17;9.07;;;11.20;43.10;;;;;;5113795;28;20051;-73
2022/04/12 10:35:56;;;;;;;9.90;7.28;;;11.20;44.80;;;;;;5114353;28;20028;-74
2022/04/12 10:38:24;;;;;;;10.50;6.28;;;11.00;44.00;;;;;;5114146;28;20020;-73
2022/04/12 10:40:52;;;;;;;8.48;6.10;;;10.90;43.70;;;;;;5113496;28;20422;-74
2022/04/12 10:43:33;;;;;;;11.60;7.03;;;10.80;43.70;;;;;;5113953;28;20030;-74
2022/04/12 10:46:01;;;;;;;12.20;7.50;;;10.80;44.60;;;;;;5114195;28;20019;-72
2022/04/12 10:48:31;;;;;;;13.25;6.63;;;11.00;44.70;;;;;;5112679;28;20423;-74
2022/04/12 10:51:00;;;;;;;11.48;6.90;;;11.40;46.40;;;;;;5112629;28;20069;-72
2022/04/12 10:53:38;;;;;;;11.25;6.93;;;11.60;44.50;;;;;;5113924;28;20015;-73
2022/04/12 10:56:15;;;;;;;8.43;6.85;;;11.80;43.40;;;;;;5112679;28;20116;-74
2022/04/12 10:58:41;;;;;;;9.27;6.82;;;11.90;42.50;;;;;;5113842;28;20020;-73
2022/04/12 11:01:26;;;;;;;10.38;5.88;;;12.10;41.40;;;;;;5113831;28;20046;-73
2022/04/12 11:03:52;;;;;;;8.68;6.07;;;12.30;40.70;;;;;;5112693;28;20073;-74
2022/04/12 11:06:26;;;;;;;12.18;6.60;;;12.60;42.60;;;;;;5113773;28;20023;-74
2022/04/12 11:09:07;;;;;;;8.93;6.00;;;12.60;42.00;;;;;;5113854;28;20016;-74
2022/04/12 11:11:41;;;;;;;7.72;5.88;;;12.60;41.70;;;;;;5113775;28;20036;-74
2022/04/12 11:14:32;;;;;;;10.32;6.50;;;12.50;40.10;;;;;;5113793;28;20034;-74
2022/04/12 11:17:12;;;;;;;10.75;6.13;;;12.60;40.70;;;;;;5115803;28;20486;-73
2022/04/12 11:19:49;;;;;;;12.27;6.10;;;12.90;42.40;;;;;;5118193;28;20038;-73
2022/04/12 11:22:17;;;;;;;8.23;5.80;;;12.90;41.00;;;;;;5117940;27;20107;-73
2022/04/12 11:24:43;;;;;;;10.35;5.22;;;12.80;39.90;;;;;;5117881;28;20039;-73
2022/04/12 11:27:11;;;;;;;10.60;5.85;;;12.80;39.00;;;;;;5117839;28;20028;-75
2022/04/12 11:29:41;;;;;;;9.40;6.40;;;12.80;39.00;;;;;;5117739;28;20437;-73
2022/04/12 11:32:08;;;;;;;10.82;6.03;;;12.60;38.40;;;;;;5117711;28;20031;-73
2022/04/12 11:34:37;;;;;;;11.27;5.53;;;12.70;39.30;;;;;;5117696;27;20074;-73
2022/04/12 11:37:05;;;;;;;7.65;5.10;;;12.90;40.60;;;;;;5117513;27;20532;-73
2022/04/12 11:39:32;;;;;;;12.18;7.22;;;12.80;39.60;;;;;;5116226;28;20396;-74
2022/04/12 11:42:00;;;;;;;7.70;4.85;;;12.70;38.30;;;;;;5117324;28;20031;-73
2022/04/12 11:44:26;;;;;;;6.90;5.20;;;12.30;38.80;;;;;;5117215;28;20034;-75
2022/04/12 11:46:56;;;;;;;7.47;4.90;;;11.80;38.70;;;;;;5116871;28;20015;-73
2022/04/12 11:49:36;;;;;;;6.43;4.70;;;11.70;39.70;;;;;;5116729;28;20019;-73
2022/04/12 11:52:04;;;;;;;10.57;5.57;;;11.50;39.40;;;;;;5116005;28;20024;-74
2022/04/12 11:54:35;;;;;;;11.25;6.00;;;11.40;39.30;;;;;;5117174;28;20044;-73
2022/04/12 11:57:05;;;;;;;11.55;5.18;;;11.50;39.90;;;;;;5117141;28;20019;-73
2022/04/12 11:59:49;;;;;;;6.07;5.10;;;11.40;40.10;;;;;;5117138;28;20027;-73
2022/04/12 12:02:16;;;;;;;7.63;5.05;;;11.50;40.40;;;;;;5117208;28;20027;-74
2022/04/12 12:04:49;;;;;;;8.85;5.60;;;11.80;41.60;;;;;;5115750;28;20024;-74
2022/04/12 12:07:15;;;;;;;9.20;5.40;;;11.90;40.30;;;;;;5115771;28;20058;-74
2022/04/12 12:09:54;;;;;;;10.48;4.75;;;12.10;40.50;;;;;;5116924;28;20051;-75
2022/04/12 12:12:20;;;;;;;8.80;5.68;;;12.30;39.80;;;;;;5116887;28;20027;-74
2022/04/12 12:14:46;;;;;;;7.57;5.38;;;12.50;39.90;;;;;;5115660;28;20034;-74
2022/04/12 12:17:20;;;;;;;8.30;5.03;;;12.60;39.80;;;;;;5116623;28;20012;-74
2022/04/12 12:19:47;;;;;;;8.00;5.13;;;12.70;39.10;;;;;;5116327;28;20445;-73
2022/04/12 12:22:14;;;;;;;7.30;4.65;;;12.70;38.20;;;;;;5116502;28;20024;-75
2022/04/12 12:24:53;;;;;;;8.52;4.97;;;12.80;38.50;;;;;;5116443;27;20031;-74
2022/04/12 12:27:49;;;;;;;9.55;5.07;;;13.00;38.10;;;;;;5098125;28;20055;-75
2022/04/12 12:30:17;;;;;;;9.30;5.72;;;13.20;38.10;;;;;;5109397;27;20082;-73
2022/04/12 12:32:43;;;;;;;7.72;4.88;;;13.20;37.70;;;;;;5115113;28;20074;-74
2022/04/12 12:35:12;;;;;;;9.57;6.53;;;13.10;36.60;;;;;;5114828;28;20031;-74
2022/04/12 12:37:39;;;;;;;6.95;5.50;;;13.20;37.00;;;;;;5114701;28;20020;-74
2022/04/12 12:40:18;;;;;;;5.70;4.05;;;13.10;36.60;;;;;;5114967;28;20023;-74
2022/04/12 12:42:44;;;;;;;8.75;4.85;;;13.10;37.10;;;;;;5112963;28;20072;-74